Time;durP1;ratioP1;P1;durP2;ratioP2;P2;SDS_P1;SDS_P2;PMS_P1;PMS_P2;Temp;Humidity;BMP_temperature;BMP_pressure;BME280_temperature;BME280_humidity;BME280_pressure;Samples;Min_cycle;Max_cycle;Signal;HPM_P1;HPM_P2
2022/03/27 00:01:20;;;;;;;;;17.75;14.00;;;26.88;98196.77;;;;117845;1186;25792;-56
2022/03/27 00:03:50;;;;;;;;;13.67;12.33;;;26.86;98198.65;;;;117471;1187;25540;-55
2022/03/27 00:06:19;;;;;;;;;18.00;14.00;;;26.84;98190.52;;;;117845;1186;26277;-55
2022/03/27 00:08:49;;;;;;;;;14.50;14.25;;;26.84;98187.52;;;;117489;1188;25122;-54
2022/03/27 00:11:27;;;;;;;;;13.00;12.33;;;26.84;98187.20;;;;117799;1187;25764;-55
2022/03/27 00:13:58;;;;;;;;;15.75;12.25;;;26.83;98186.02;;;;117736;1188;25171;-55
2022/03/27 00:16:30;;;;;;;;;20.67;17.67;;;26.82;98186.96;;;;117748;1187;24864;-55
2022/03/27 00:19:03;;;;;;;;;13.75;12.75;;;26.83;98182.61;;;;117713;1186;25497;-56
2022/03/27 00:21:33;;;;;;;;;15.50;13.00;;;26.85;98184.66;;;;117787;1187;25047;-57
2022/03/27 00:24:01;;;;;;;;;17.75;15.25;;;26.86;98185.44;;;;117510;1189;26486;-55
2022/03/27 00:26:30;;;;;;;;;22.00;13.67;;;26.85;98180.84;;;;117315;1190;25243;-54
2022/03/27 00:28:59;;;;;;;;;17.25;13.50;;;26.81;98181.49;;;;117865;1188;25458;-54
2022/03/27 00:31:29;;;;;;;;;16.33;12.67;;;26.79;98183.73;;;;117834;1188;25587;-55
2022/03/27 00:33:57;;;;;;;;;18.00;13.00;;;26.77;98184.02;;;;117863;1187;25555;-56
2022/03/27 00:36:27;;;;;;;;;13.00;13.00;;;26.77;98180.77;;;;117819;1186;25454;-56
2022/03/27 00:38:56;;;;;;;;;16.00;13.75;;;26.75;98182.00;;;;117792;1187;25458;-55
2022/03/27 00:41:27;;;;;;;;;21.25;15.00;;;26.74;98186.18;;;;117826;1186;25312;-55
2022/03/27 00:43:59;;;;;;;;;19.00;17.50;;;26.74;98187.60;;;;117884;1188;25065;-56
2022/03/27 00:46:32;;;;;;;;;14.75;13.00;;;26.76;98188.48;;;;117878;1187;25466;-55
2022/03/27 00:49:00;;;;;;;;;15.25;12.25;;;26.77;98194.05;;;;117456;1188;25627;-56
2022/03/27 00:51:30;;;;;;;;;12.00;10.67;;;26.75;98187.73;;;;117835;1187;25400;-56
2022/03/27 00:54:01;;;;;;;;;15.33;13.67;;;26.73;98187.80;;;;117841;1187;25040;-56
2022/03/27 00:56:30;;;;;;;;;16.25;14.25;;;26.72;98189.01;;;;117802;1188;24752;-55
2022/03/27 00:58:58;;;;;;;;;13.25;12.00;;;26.70;98191.04;;;;117352;1188;24769;-55
2022/03/27 01:01:39;;;;;;;;;19.67;15.00;;;26.69;98190.86;;;;117867;1188;25680;-56
2022/03/27 01:04:08;;;;;;;;;16.33;15.00;;;26.71;98195.73;;;;117887;1188;25019;-55
2022/03/27 01:06:44;;;;;;;;;11.25;10.25;;;26.74;98199.77;;;;117839;1188;24977;-55
2022/03/27 01:09:38;;;;;;;;;14.75;13.50;;;26.72;98203.67;;;;117844;1186;25348;-55
2022/03/27 01:12:15;;;;;;;;;15.25;13.00;;;26.77;98201.75;;;;117837;1186;25470;-55
2022/03/27 01:14:44;;;;;;;;;19.75;15.75;;;26.77;98205.41;;;;117849;1187;25802;-55
2022/03/27 01:17:20;;;;;;;;;17.67;13.00;;;26.76;98200.45;;;;117359;1189;25731;-55
2022/03/27 01:19:50;;;;;;;;;17.00;10.67;;;26.74;98197.69;;;;117888;1187;25682;-54
2022/03/27 01:22:23;;;;;;;;;19.50;16.50;;;26.75;98203.61;;;;117864;1186;25590;-55
2022/03/27 01:24:52;;;;;;;;;14.00;12.50;;;26.75;98207.05;;;;117872;1187;25321;-56
2022/03/27 01:27:23;;;;;;;;;14.33;11.00;;;26.77;98212.09;;;;117863;1188;25686;-53
2022/03/27 01:29:53;;;;;;;;;18.25;15.50;;;26.79;98210.94;;;;117787;1188;25432;-54
2022/03/27 01:32:23;;;;;;;;;17.00;13.50;;;26.83;98213.65;;;;117436;1189;25681;-56
2022/03/27 01:34:53;;;;;;;;;16.25;12.25;;;26.84;98219.38;;;;117863;1187;24969;-55
2022/03/27 01:37:25;;;;;;;;;11.75;9.50;;;26.84;98217.00;;;;117863;1187;25296;-55
2022/03/27 01:39:55;;;;;;;;;9.00;8.75;;;26.87;98216.88;;;;117828;1187;25048;-56
2022/03/27 01:42:27;;;;;;;;;12.00;11.33;;;26.88;98211.19;;;;117860;1188;24777;-54
2022/03/27 01:44:56;;;;;;;;;12.50;11.75;;;26.89;98203.36;;;;117515;1189;25085;-55
2022/03/27 01:47:27;;;;;;;;;12.75;9.25;;;26.91;98211.71;;;;117410;1189;25106;-55
2022/03/27 01:49:55;;;;;;;;;13.50;11.50;;;26.93;98213.79;;;;117811;1188;25630;-55
2022/03/27 01:52:26;;;;;;;;;13.75;10.75;;;26.91;98220.39;;;;117841;1187;25687;-55
2022/03/27 01:54:54;;;;;;;;;11.67;10.33;;;26.89;98222.39;;;;117837;1187;25180;-55
2022/03/27 01:57:23;;;;;;;;;18.50;11.75;;;26.88;98226.90;;;;117836;1187;25784;-53
2022/03/27 01:59:52;;;;;;;;;14.00;11.50;;;26.90;98236.80;;;;117459;1187;25618;-56
2022/03/27 02:02:24;;;;;;;;;11.25;9.75;;;26.89;98235.31;;;;117822;1187;25642;-54
2022/03/27 02:04:53;;;;;;;;;16.75;13.00;;;26.89;98224.42;;;;117406;1188;24735;-57
2022/03/27 02:07:27;;;;;;;;;13.25;11.50;;;26.88;98212.79;;;;117851;1188;25170;-55
2022/03/27 02:09:56;;;;;;;;;14.25;13.75;;;26.90;98218.02;;;;117884;1187;24986;-56
2022/03/27 02:12:27;;;;;;;;;10.50;9.50;;;26.89;98223.79;;;;117849;1187;25650;-56
2022/03/27 02:14:56;;;;;;;;;12.50;11.00;;;26.89;98217.32;;;;117807;1187;25003;-56
2022/03/27 02:17:26;;;;;;;;;17.00;11.00;;;26.87;98220.11;;;;117787;1187;25786;-55
2022/03/27 02:19:58;;;;;;;;;14.50;13.25;;;26.85;98218.77;;;;117855;1188;24729;-55
2022/03/27 02:22:27;;;;;;;;;11.50;10.00;;;26.83;98231.21;;;;117506;1189;25164;-55
2022/03/27 02:24:59;;;;;;;;;13.75;11.50;;;26.84;98239.14;;;;117880;1187;25373;-56
2022/03/27 02:27:27;;;;;;;;;15.33;11.67;;;26.83;98246.66;;;;117873;1188;25102;-55
2022/03/27 02:30:00;;;;;;;;;11.00;9.67;;;26.82;98253.25;;;;117827;1186;27066;-55
2022/03/27 02:32:29;;;;;;;;;11.50;9.50;;;26.81;98266.04;;;;117788;1187;24779;-55
2022/03/27 02:34:58;;;;;;;;;12.50;10.25;;;26.81;98270.27;;;;117777;1188;24948;-55
2022/03/27 02:37:29;;;;;;;;;12.33;11.00;;;26.79;98280.37;;;;117805;1187;25273;-55
2022/03/27 02:39:59;;;;;;;;;12.50;12.50;;;26.77;98292.24;;;;117849;1188;25280;-55
2022/03/27 02:42:28;;;;;;;;;12.50;10.00;;;26.77;98299.77;;;;117853;1187;25657;-55
2022/03/27 02:44:56;;;;;;;;;14.00;11.33;;;26.75;98305.24;;;;117821;1188;25635;-56
2022/03/27 02:47:25;;;;;;;;;12.00;10.00;;;26.73;98303.09;;;;117857;1187;24850;-55
2022/03/27 02:49:55;;;;;;;;;11.50;9.00;;;26.74;98300.71;;;;117807;1187;25325;-56
2022/03/27 02:52:31;;;;;;;;;11.75;10.00;;;26.73;98301.83;;;;117417;1189;25690;-55
2022/03/27 02:55:02;;;;;;;;;11.50;11.25;;;26.76;98303.17;;;;117369;1189;25077;-55
2022/03/27 02:57:31;;;;;;;;;13.75;12.75;;;26.76;98301.35;;;;117393;1189;25233;-55
2022/03/27 03:00:07;;;;;;;;;12.75;12.25;;;26.74;98298.86;;;;117821;1188;25173;-55
2022/03/27 03:02:36;;;;;;;;;12.25;11.50;;;26.75;98293.83;;;;117838;1186;25479;-55
2022/03/27 03:05:09;;;;;;;;;16.75;11.75;;;26.74;98297.81;;;;117872;1188;24869;-54
2022/03/27 03:07:41;;;;;;;;;10.00;9.25;;;26.74;98299.21;;;;117891;1187;24753;-55
2022/03/27 03:10:14;;;;;;;;;12.50;11.00;;;26.75;98302.98;;;;117886;1186;24844;-55
2022/03/27 03:12:42;;;;;;;;;9.67;8.33;;;26.74;98312.76;;;;117894;1186;25459;-56
2022/03/27 03:15:10;;;;;;;;;10.67;8.33;;;26.74;98310.67;;;;117838;1187;25577;-56
2022/03/27 03:17:40;;;;;;;;;14.25;11.00;;;26.72;98310.82;;;;117496;1188;25419;-55
2022/03/27 03:20:12;;;;;;;;;13.67;12.33;;;26.69;98309.77;;;;117872;1187;25251;-55
2022/03/27 03:22:41;;;;;;;;;13.00;11.00;;;26.70;98314.41;;;;117441;1187;25266;-55
2022/03/27 03:25:10;;;;;;;;;12.33;12.00;;;26.69;98322.48;;;;117936;1187;25357;-55
2022/03/27 03:27:39;;;;;;;;;13.75;10.00;;;26.69;98324.26;;;;117364;1189;25384;-54
2022/03/27 03:30:11;;;;;;;;;13.33;9.00;;;26.66;98328.64;;;;117864;1187;25335;-55
2022/03/27 03:32:40;;;;;;;;;11.50;10.50;;;26.67;98330.10;;;;117817;1186;25121;-55
2022/03/27 03:35:11;;;;;;;;;14.00;10.75;;;26.65;98325.80;;;;117819;1187;25456;-56
2022/03/27 03:38:02;;;;;;;;;11.00;10.00;;;26.73;98332.62;;;;117354;1189;25198;-54
2022/03/27 03:40:30;;;;;;;;;12.25;10.50;;;26.71;98329.87;;;;117904;1187;25684;-55
2022/03/27 03:42:58;;;;;;;;;12.67;8.67;;;26.70;98332.30;;;;117827;1187;25598;-55
2022/03/27 03:45:29;;;;;;;;;13.00;12.00;;;26.67;98337.10;;;;117830;1186;25326;-55
2022/03/27 03:48:01;;;;;;;;;8.75;8.25;;;26.69;98340.80;;;;117872;1188;25122;-55
2022/03/27 03:50:33;;;;;;;;;9.75;8.50;;;26.73;98346.00;;;;117484;1188;25052;-55
2022/03/27 03:53:01;;;;;;;;;11.00;9.50;;;26.77;98350.23;;;;117846;1186;25098;-55
2022/03/27 03:55:29;;;;;;;;;12.67;9.00;;;26.78;98352.09;;;;117837;1187;24959;-55
2022/03/27 03:57:59;;;;;;;;;12.25;9.25;;;26.80;98357.54;;;;117440;1188;26522;-54
2022/03/27 04:00:30;;;;;;;;;13.00;9.25;;;26.80;98354.21;;;;117379;1189;25544;-54
2022/03/27 04:03:02;;;;;;;;;10.75;8.50;;;26.81;98354.84;;;;117817;1188;24908;-55
2022/03/27 04:05:33;;;;;;;;;11.67;7.67;;;26.84;98359.67;;;;117854;1187;25661;-55
2022/03/27 04:08:04;;;;;;;;;11.50;10.00;;;26.85;98366.44;;;;117864;1188;24771;-54
2022/03/27 04:10:33;;;;;;;;;13.25;8.50;;;26.86;98363.52;;;;117415;1189;25635;-55
2022/03/27 04:13:03;;;;;;;;;5.75;5.75;;;26.89;98370.14;;;;117835;1186;25545;-55
2022/03/27 04:15:34;;;;;;;;;10.00;10.00;;;26.88;98375.44;;;;117828;1187;25779;-56
2022/03/27 04:18:25;;;;;;;;;8.50;8.25;;;26.98;98376.84;;;;117877;1188;25833;-56
2022/03/27 04:20:55;;;;;;;;;8.75;8.25;;;26.99;98378.70;;;;117391;1189;25242;-54
2022/03/27 04:23:24;;;;;;;;;11.75;8.00;;;26.97;98386.98;;;;117834;1188;26472;-55
2022/03/27 04:25:54;;;;;;;;;10.00;7.00;;;26.95;98391.34;;;;117857;1188;25585;-56
2022/03/27 04:28:24;;;;;;;;;10.67;8.33;;;26.94;98396.92;;;;117521;1188;25484;-55
2022/03/27 04:30:56;;;;;;;;;7.75;6.25;;;26.95;98399.88;;;;117487;1188;25541;-55
2022/03/27 04:33:25;;;;;;;;;7.75;7.00;;;26.93;98396.06;;;;117801;1187;25297;-56
2022/03/27 04:35:53;;;;;;;;;8.25;7.25;;;26.93;98395.81;;;;117873;1187;24923;-51
2022/03/27 04:38:21;;;;;;;;;5.50;3.25;;;26.91;98409.87;;;;117796;1188;24742;-49
2022/03/27 04:40:50;;;;;;;;;7.33;6.67;;;26.88;98416.64;;;;117834;1187;24900;-56
2022/03/27 04:43:22;;;;;;;;;7.75;5.00;;;26.87;98413.98;;;;117811;1187;24887;-53
2022/03/27 04:45:51;;;;;;;;;9.75;8.75;;;26.89;98418.58;;;;117853;1188;25385;-51
2022/03/27 04:48:19;;;;;;;;;7.75;6.00;;;26.85;98422.17;;;;117715;1188;24925;-49
2022/03/27 04:50:48;;;;;;;;;9.25;6.75;;;26.82;98423.35;;;;117449;1186;25029;-55
2022/03/27 04:53:16;;;;;;;;;7.00;7.00;;;26.82;98417.27;;;;117551;1189;25722;-50
2022/03/27 04:55:44;;;;;;;;;9.75;7.75;;;26.80;98424.64;;;;117864;1187;25524;-50
2022/03/27 04:58:12;;;;;;;;;9.25;8.50;;;26.80;98431.73;;;;117776;1188;25555;-48
2022/03/27 05:00:39;;;;;;;;;8.50;8.50;;;26.75;98437.79;;;;117789;1186;25570;-47
2022/03/27 05:03:08;;;;;;;;;6.50;6.50;;;26.74;98443.86;;;;117788;1188;25637;-49
2022/03/27 05:05:36;;;;;;;;;7.00;6.67;;;26.76;98450.71;;;;117803;1186;25124;-51
2022/03/27 05:08:04;;;;;;;;;5.75;5.50;;;26.74;98455.82;;;;117787;1187;25042;-50
2022/03/27 05:10:34;;;;;;;;;10.25;8.75;;;26.75;98466.02;;;;117840;1187;25096;-48
2022/03/27 05:13:08;;;;;;;;;8.00;7.00;;;26.78;98466.95;;;;117825;1186;25548;-49
2022/03/27 05:15:37;;;;;;;;;11.25;8.25;;;26.80;98462.61;;;;117820;1186;25561;-50
2022/03/27 05:18:05;;;;;;;;;7.00;6.75;;;26.78;98469.66;;;;117852;1187;25331;-50
2022/03/27 05:20:33;;;;;;;;;5.75;5.75;;;26.73;98470.70;;;;117821;1188;25371;-50
2022/03/27 05:23:01;;;;;;;;;5.75;5.75;;;26.73;98469.27;;;;117460;1186;25701;-50
2022/03/27 05:25:29;;;;;;;;;6.50;5.50;;;26.74;98470.40;;;;117835;1188;25001;-48
2022/03/27 05:27:58;;;;;;;;;6.33;5.33;;;26.73;98473.81;;;;117872;1186;25494;-48
2022/03/27 05:30:27;;;;;;;;;8.00;8.00;;;26.75;98483.61;;;;117845;1187;25414;-49
2022/03/27 05:33:12;;;;;;;;;7.75;5.75;;;26.77;98485.38;;;;117886;1188;27103;-50
2022/03/27 05:35:43;;;;;;;;;6.75;5.75;;;26.88;98490.60;;;;117830;1186;25443;-50
2022/03/27 05:38:14;;;;;;;;;9.50;7.25;;;26.90;98495.27;;;;117333;1189;25452;-52
2022/03/27 05:40:47;;;;;;;;;6.25;6.00;;;26.85;98488.98;;;;117852;1187;25247;-52
2022/03/27 05:43:25;;;;;;;;;8.00;7.25;;;26.82;98479.15;;;;117826;1187;25383;-50
2022/03/27 05:45:56;;;;;;;;;6.75;6.75;;;26.82;98480.50;;;;117864;1187;25547;-52
2022/03/27 05:48:24;;;;;;;;;9.75;9.00;;;26.81;98483.48;;;;119381;1186;25133;-54
2022/03/27 05:50:58;;;;;;;;;14.75;10.50;;;27.29;98489.61;;;;117885;1188;24774;-52
2022/03/27 05:53:26;;;;;;;;;11.00;10.50;;;27.13;98498.39;;;;117609;1187;25829;-51
2022/03/27 05:55:59;;;;;;;;;14.00;11.67;;;27.03;98505.13;;;;117856;1187;25351;-57
2022/03/27 05:58:31;;;;;;;;;10.75;10.00;;;26.91;98505.30;;;;117821;1186;25493;-60
2022/03/27 06:01:00;;;;;;;;;11.00;11.00;;;26.85;98506.23;;;;117452;1190;24694;-52
2022/03/27 06:03:29;;;;;;;;;7.75;7.00;;;26.81;98510.35;;;;117852;1186;26157;-58
2022/03/27 06:05:59;;;;;;;;;12.75;11.50;;;26.79;98513.73;;;;117829;1188;25225;-53
2022/03/27 06:08:30;;;;;;;;;13.75;11.00;;;26.76;98523.56;;;;117845;1187;25449;-57
2022/03/27 06:11:03;;;;;;;;;13.75;11.50;;;26.71;98528.00;;;;117358;1189;24786;-54
2022/03/27 06:13:34;;;;;;;;;11.00;11.00;;;26.68;98533.89;;;;117816;1187;25915;-58
2022/03/27 06:16:04;;;;;;;;;16.67;14.00;;;26.66;98529.88;;;;117866;1188;26361;-51
2022/03/27 06:18:36;;;;;;;;;13.00;12.00;;;26.67;98532.48;;;;117843;1187;24797;-54
2022/03/27 06:21:06;;;;;;;;;15.75;14.25;;;26.67;98535.30;;;;117870;1186;25476;-51
2022/03/27 06:23:36;;;;;;;;;14.33;13.33;;;26.66;98538.27;;;;117795;1187;25185;-56
2022/03/27 06:26:06;;;;;;;;;14.00;13.25;;;26.65;98535.95;;;;117866;1188;24935;-55
2022/03/27 06:28:36;;;;;;;;;14.75;13.75;;;26.66;98540.16;;;;117721;1188;25028;-49
2022/03/27 06:31:08;;;;;;;;;14.00;12.50;;;26.64;98547.52;;;;117612;1187;25229;-61
2022/03/27 06:33:38;;;;;;;;;16.33;12.33;;;26.63;98553.81;;;;117805;1186;25129;-51
2022/03/27 06:36:09;;;;;;;;;14.25;14.25;;;26.62;98554.17;;;;117823;1187;25302;-54
2022/03/27 06:38:39;;;;;;;;;14.50;13.50;;;26.59;98559.90;;;;117850;1187;25399;-52
2022/03/27 06:41:12;;;;;;;;;14.33;14.33;;;26.61;98566.62;;;;117798;1188;24861;-51
2022/03/27 06:43:45;;;;;;;;;15.75;13.00;;;26.60;98567.02;;;;117849;1187;25145;-58
2022/03/27 06:46:17;;;;;;;;;11.50;11.00;;;26.64;98570.97;;;;117825;1188;25207;-57
2022/03/27 06:48:46;;;;;;;;;12.75;12.50;;;26.62;98562.52;;;;117834;1187;25259;-48
2022/03/27 06:51:19;;;;;;;;;16.00;14.00;;;26.61;98563.60;;;;117845;1188;25126;-57
2022/03/27 06:53:52;;;;;;;;;18.25;14.75;;;26.62;98570.10;;;;117724;1188;25399;-59
2022/03/27 06:56:20;;;;;;;;;18.50;16.25;;;26.64;98579.73;;;;118061;1188;25118;-53
2022/03/27 06:58:50;;;;;;;;;14.33;12.67;;;26.72;98582.30;;;;117955;1186;24764;-57
2022/03/27 07:04:05;;;;;;;;;14.75;14.00;;;26.79;98578.50;;;;117976;1187;24949;-48
2022/03/27 07:06:33;;;;;;;;;18.00;14.50;;;26.76;98579.68;;;;117815;1187;25627;-52
2022/03/27 07:09:04;;;;;;;;;20.00;18.00;;;26.73;98583.33;;;;117785;1188;25423;-55
2022/03/27 07:11:38;;;;;;;;;23.00;17.00;;;26.76;98581.51;;;;117795;1186;25627;-50
2022/03/27 07:14:12;;;;;;;;;17.67;15.67;;;26.80;98581.06;;;;117431;1189;25268;-47
2022/03/27 07:16:52;;;;;;;;;19.00;14.75;;;26.85;98581.41;;;;117844;1186;24917;-48
2022/03/27 07:19:25;;;;;;;;;21.00;17.00;;;26.81;98588.34;;;;117892;1188;25328;-48
2022/03/27 07:22:06;;;;;;;;;18.00;14.67;;;26.79;98593.49;;;;117846;1186;24924;-48
2022/03/27 07:24:37;;;;;;;;;13.33;13.33;;;26.79;98586.62;;;;117453;1189;25031;-46
2022/03/27 07:27:10;;;;;;;;;16.50;12.50;;;26.76;98583.60;;;;117913;1186;25647;-53
2022/03/27 07:29:41;;;;;;;;;18.00;17.00;;;26.79;98580.16;;;;117845;1187;25479;-50
2022/03/27 07:32:11;;;;;;;;;17.67;15.00;;;26.78;98574.40;;;;117533;1189;25616;-51
2022/03/27 07:34:46;;;;;;;;;14.00;13.00;;;26.77;98600.42;;;;117833;1186;24899;-54
2022/03/27 07:37:16;;;;;;;;;9.00;9.00;;;26.25;98594.21;;;;117799;1187;25527;-52
2022/03/27 07:39:44;;;;;;;;;13.75;11.25;;;25.94;98607.42;;;;117656;1186;25513;-52
2022/03/27 07:42:14;;;;;;;;;14.33;11.33;;;25.73;98597.58;;;;117797;1186;26112;-46
2022/03/27 07:44:45;;;;;;;;;16.00;11.00;;;25.60;98593.48;;;;117837;1188;25337;-52
2022/03/27 07:47:19;;;;;;;;;15.00;12.50;;;25.67;98596.86;;;;117778;1187;25426;-52
2022/03/27 07:49:51;;;;;;;;;15.50;11.00;;;25.48;98609.71;;;;117857;1188;25108;-51
2022/03/27 07:52:23;;;;;;;;;8.67;7.67;;;24.90;98615.49;;;;117842;1188;24894;-49
2022/03/27 07:54:52;;;;;;;;;12.33;11.00;;;24.06;98614.09;;;;117825;1188;25076;-51
2022/03/27 07:57:22;;;;;;;;;16.33;14.00;;;23.75;98607.14;;;;117859;1187;25298;-50
2022/03/27 08:00:10;;;;;;;;;12.67;11.33;;;23.93;98593.96;;;;117821;1187;24682;-48
2022/03/27 08:02:41;;;;;;;;;8.67;8.67;;;24.17;98586.17;;;;117809;1187;24783;-56
2022/03/27 08:05:14;;;;;;;;;15.00;13.00;;;24.33;98588.63;;;;117482;1188;24880;-54
2022/03/27 08:07:45;;;;;;;;;11.00;8.00;;;24.48;98595.97;;;;117983;1187;25240;-48
2022/03/27 08:10:15;;;;;;;;;11.00;10.33;;;24.64;98604.07;;;;117807;1188;25643;-49
2022/03/27 08:12:50;;;;;;;;;11.50;10.00;;;24.74;98594.89;;;;117728;1188;24828;-53
2022/03/27 08:15:21;;;;;;;;;14.33;10.33;;;24.83;98589.20;;;;117811;1187;25426;-47
2022/03/27 08:17:54;;;;;;;;;10.67;10.67;;;24.94;98598.20;;;;117842;1186;25535;-52
2022/03/27 08:20:29;;;;;;;;;14.00;10.33;;;24.96;98591.98;;;;117566;1189;25646;-54
2022/03/27 08:22:59;;;;;;;;;26.00;17.00;;;25.06;98591.79;;;;117806;1187;24910;-52
2022/03/27 08:28:14;;;;;;;;;15.33;12.67;;;25.08;98599.35;;;;117878;1188;25630;-52
2022/03/27 08:30:44;;;;;;;;;14.33;12.33;;;25.13;98601.50;;;;117881;1188;25031;-53
2022/03/27 08:33:15;;;;;;;;;24.00;19.00;;;25.18;98609.88;;;;117409;1189;25794;-50
2022/03/27 08:35:46;;;;;;;;;25.67;17.67;;;25.20;98594.63;;;;117412;1190;25220;-50
2022/03/27 08:38:18;;;;;;;;;24.33;14.67;;;25.28;98588.53;;;;117466;1189;25524;-56
2022/03/27 08:40:55;;;;;;;;;18.00;12.00;;;25.33;98594.36;;;;117357;1189;25916;-54
2022/03/27 08:45:14;;;;;;;;;11.33;9.33;;;21.54;98593.60;;;;116024;1205;23504;-76
2022/03/27 08:47:47;;;;;;;;;15.33;12.33;;;18.91;98590.16;;;;117115;1194;25447;-76
2022/03/27 08:50:34;;;;;;;;;22.00;14.67;;;15.71;98580.78;;;;117089;1194;25477;-79
2022/03/27 08:53:05;;;;;;;;;21.67;16.33;;;14.42;98569.71;;;;117091;1194;24907;-77
2022/03/27 08:55:53;;;;;;;;;19.25;15.25;;;13.67;98559.34;;;;117164;1194;25395;-77
2022/03/27 08:58:34;;;;;;;;;17.50;14.00;;;12.90;98578.33;;;;117439;1190;25505;-78
2022/03/27 09:01:04;;;;;;;;;15.75;14.00;;;12.63;98570.50;;;;117234;1192;25295;-78
2022/03/27 09:03:35;;;;;;;;;17.00;13.67;;;12.41;98566.21;;;;117378;1191;24902;-76
2022/03/27 09:06:08;;;;;;;;;20.50;13.25;;;12.18;98578.98;;;;117327;1191;25445;-81
2022/03/27 09:08:37;;;;;;;;;21.33;17.67;;;12.15;98572.40;;;;117448;1191;25601;-78
2022/03/27 09:11:21;;;;;;;;;16.00;13.25;;;11.96;98576.36;;;;117352;1191;25272;-79
2022/03/27 09:13:50;;;;;;;;;20.00;17.00;;;12.03;98598.82;;;;117444;1189;25346;-77
2022/03/27 09:16:20;;;;;;;;;20.33;13.00;;;11.92;98578.23;;;;117258;1192;24891;-79
2022/03/27 09:18:58;;;;;;;;;15.33;10.67;;;12.02;98591.61;;;;117427;1191;25147;-78
2022/03/27 09:21:31;;;;;;;;;19.00;13.00;;;12.36;98580.88;;;;117256;1192;25422;-79
2022/03/27 09:24:07;;;;;;;;;16.00;10.00;;;12.42;98590.40;;;;117275;1192;25647;-79
2022/03/27 09:27:00;;;;;;;;;16.50;15.50;;;12.33;98599.98;;;;117458;1191;24929;-78
2022/03/27 09:29:30;;;;;;;;;15.25;13.75;;;12.47;98588.51;;;;117261;1191;25432;-77
2022/03/27 09:32:02;;;;;;;;;16.00;13.00;;;12.65;98595.95;;;;117315;1191;24826;-79
2022/03/27 09:35:18;;;;;;;;;14.50;9.25;;;12.61;98590.96;;;;117403;1190;25206;-78
2022/03/27 09:37:52;;;;;;;;;21.00;16.00;;;13.06;98595.41;;;;117415;1191;25258;-77
2022/03/27 09:40:35;;;;;;;;;10.75;10.75;;;13.10;98588.48;;;;117514;1189;25242;-78
2022/03/27 09:43:14;;;;;;;;;13.00;8.75;;;13.33;98588.52;;;;117556;1191;25466;-76
2022/03/27 09:45:58;;;;;;;;;17.00;14.00;;;13.38;98601.79;;;;117372;1191;25495;-78
2022/03/27 09:48:32;;;;;;;;;15.75;13.25;;;13.41;98593.12;;;;117397;1192;25736;-77
2022/03/27 09:51:04;;;;;;;;;16.50;13.50;;;13.15;98602.00;;;;117382;1190;25674;-77
2022/03/27 09:53:36;;;;;;;;;15.50;12.25;;;13.20;98598.27;;;;117523;1191;25653;-79
2022/03/27 09:56:13;;;;;;;;;14.75;10.50;;;13.33;98604.92;;;;117368;1193;24837;-80
2022/03/27 09:58:46;;;;;;;;;22.67;15.00;;;13.39;98607.64;;;;117427;1190;24821;-76
2022/03/27 10:01:20;;;;;;;;;16.67;15.67;;;13.38;98598.48;;;;117350;1190;25076;-78
2022/03/27 10:04:03;;;;;;;;;16.33;13.00;;;13.56;98618.46;;;;117262;1191;25434;-76
2022/03/27 10:06:42;;;;;;;;;15.67;13.67;;;13.17;98602.69;;;;117555;1191;25915;-77
2022/03/27 10:09:12;;;;;;;;;11.50;11.00;;;13.37;98606.98;;;;117241;1192;24929;-78
2022/03/27 10:11:46;;;;;;;;;8.00;6.75;;;13.50;98606.59;;;;117415;1190;24828;-82
2022/03/27 10:14:15;;;;;;;;;13.75;10.75;;;13.60;98618.41;;;;117318;1190;25437;-80
2022/03/27 10:16:48;;;;;;;;;20.50;16.00;;;13.70;98616.86;;;;117465;1189;25234;-76
2022/03/27 10:19:44;;;;;;;;;10.75;7.00;;;13.78;98624.48;;;;117240;1192;24961;-79
2022/03/27 10:22:23;;;;;;;;;16.00;13.50;;;13.77;98619.15;;;;117307;1191;25669;-76
2022/03/27 10:25:01;;;;;;;;;16.75;14.25;;;14.08;98634.30;;;;117428;1190;25636;-79
2022/03/27 10:27:34;;;;;;;;;11.75;11.00;;;14.22;98629.92;;;;117270;1191;25730;-77
2022/03/27 10:30:14;;;;;;;;;14.75;12.25;;;14.37;98626.98;;;;117426;1189;25200;-77
2022/03/27 10:32:46;;;;;;;;;15.00;13.67;;;14.40;98621.73;;;;117272;1192;24717;-80
2022/03/27 10:36:18;;;;;;;;;18.25;15.50;;;14.35;98612.98;;;;117259;1191;25430;-81
2022/03/27 10:39:13;;;;;;;;;10.75;10.00;;;14.51;98608.75;;;;117697;1191;25514;-81
2022/03/27 10:42:15;;;;;;;;;20.00;14.50;;;14.86;98611.52;;;;117648;1189;25328;-75
2022/03/27 10:44:57;;;;;;;;;18.50;13.75;;;14.91;98610.49;;;;117551;1191;25562;-75
2022/03/27 10:47:25;;;;;;;;;20.25;16.50;;;14.82;98594.98;;;;117847;1191;24981;-75
2022/03/27 10:50:21;;;;;;;;;21.75;18.75;;;15.06;98602.84;;;;117303;1191;25205;-75
2022/03/27 10:52:52;;;;;;;;;25.25;19.75;;;14.79;98611.25;;;;117434;1191;24967;-74
2022/03/27 10:55:22;;;;;;;;;18.75;14.25;;;14.81;98608.01;;;;117596;1189;25266;-75
2022/03/27 10:57:50;;;;;;;;;27.33;19.67;;;14.66;98599.95;;;;117441;1191;25299;-73
2022/03/27 11:02:44;;;;;;;;;15.75;11.50;;;16.76;98570.30;;;;116500;1205;23529;-48
2022/03/27 11:05:35;;;;;;;;;12.67;11.33;;;18.09;98577.44;;;;118049;1194;25114;-48
2022/03/27 11:08:15;;;;;;;;;10.00;8.33;;;20.04;98581.08;;;;117078;1192;25474;-47
2022/03/27 11:10:49;;;;;;;;;10.50;10.00;;;20.92;98584.28;;;;117269;1195;25167;-45
2022/03/27 11:13:28;;;;;;;;;11.33;10.00;;;21.63;98594.95;;;;117012;1192;25706;-46
2022/03/27 11:16:12;;;;;;;;;11.00;10.33;;;22.11;98590.92;;;;117012;1194;25012;-45
2022/03/27 11:18:50;;;;;;;;;13.00;10.00;;;22.48;98598.36;;;;117426;1189;25817;-46
2022/03/27 11:21:29;;;;;;;;;9.00;7.00;;;22.83;98589.86;;;;117475;1190;25331;-52
2022/03/27 11:24:07;;;;;;;;;14.67;13.00;;;23.14;98597.25;;;;117467;1189;25276;-54
2022/03/27 11:26:35;;;;;;;;;9.00;9.00;;;23.41;98591.45;;;;117719;1187;24891;-49
2022/03/27 11:29:21;;;;;;;;;11.00;9.67;;;23.56;98586.93;;;;117487;1188;25612;-49
2022/03/27 11:32:07;;;;;;;;;8.33;8.33;;;23.71;98578.77;;;;117806;1186;25089;-47
2022/03/27 11:34:36;;;;;;;;;10.33;9.67;;;23.91;98578.58;;;;117759;1188;24775;-49
2022/03/27 11:37:25;;;;;;;;;11.00;9.00;;;24.09;98569.66;;;;117745;1188;25383;-46
2022/03/27 11:39:54;;;;;;;;;9.00;9.00;;;24.32;98564.48;;;;117928;1188;25134;-52
2022/03/27 11:42:28;;;;;;;;;9.00;9.00;;;24.57;98569.00;;;;117717;1187;25482;-50
2022/03/27 11:45:16;;;;;;;;;8.00;8.00;;;24.69;98569.30;;;;117790;1188;25059;-45
2022/03/27 11:47:52;;;;;;;;;11.00;7.00;;;24.84;98573.65;;;;117841;1186;25232;-44
2022/03/27 11:50:24;;;;;;;;;11.33;11.00;;;24.97;98573.80;;;;117828;1188;25471;-52
2022/03/27 11:52:57;;;;;;;;;9.33;9.33;;;25.10;98568.73;;;;117857;1187;24801;-47
2022/03/27 11:55:33;;;;;;;;;10.00;9.33;;;25.23;98571.81;;;;117815;1188;24985;-45
2022/03/27 11:58:03;;;;;;;;;9.00;8.00;;;25.37;98571.63;;;;117803;1187;25216;-50
2022/03/27 12:01:01;;;;;;;;;11.00;10.33;;;25.50;98571.56;;;;117862;1186;24905;-49
2022/03/27 12:03:35;;;;;;;;;16.00;13.33;;;25.72;98562.27;;;;117811;1188;25347;-49
2022/03/27 12:06:08;;;;;;;;;13.00;12.00;;;25.87;98567.39;;;;117839;1187;25460;-51
2022/03/27 12:08:44;;;;;;;;;21.33;13.67;;;25.94;98570.27;;;;117811;1187;25381;-49
2022/03/27 12:11:20;;;;;;;;;11.50;10.00;;;26.01;98567.45;;;;117830;1186;25155;-48
2022/03/27 12:13:52;;;;;;;;;12.50;8.25;;;26.10;98575.27;;;;117755;1187;25285;-50
2022/03/27 12:16:29;;;;;;;;;12.25;10.00;;;25.83;98576.35;;;;117935;1186;25402;-53
2022/03/27 12:19:12;;;;;;;;;8.25;8.00;;;25.91;98570.86;;;;117851;1186;25353;-50
2022/03/27 12:21:47;;;;;;;;;5.25;4.00;;;25.77;98573.54;;;;117866;1188;25109;-51
2022/03/27 12:24:23;;;;;;;;;9.00;7.75;;;25.84;98580.41;;;;117760;1187;24741;-54
2022/03/27 12:29:43;;;;;;;;;6.00;6.00;;;25.73;98575.82;;;;117842;1187;25079;-49
2022/03/27 12:32:14;;;;;;;;;8.00;5.75;;;25.72;98569.10;;;;117786;1186;25374;-52
2022/03/27 12:34:50;;;;;;;;;8.50;7.50;;;25.71;98572.61;;;;117892;1187;25337;-52